»·PEaware :: N491H KRNM-KFUL

N491H :: KRNM-KFUL

FLIGHT INFORMATION

Flight Status: Arrived
Operator: Privately registered:
United States
More flights under this callsign
Pilot: Edward H. (2712)
Aircraft: CESSNA 172 SKYHAWK
(C172)
More flights by this aircraft type
Origin: KRNM Ramona
United States
Destination: KFUL Fullerton Mun
United States
More flights between these airports :: More routes between these airports
Route: +
File this flight plan on PilotEdge
Remarks: FF
Altitude:
(Current/Filed)
0ft
Speed:
(Current/Filed)
0kts
Departed: 25-Apr-18 03:56 PM
Arrived: 25-Apr-18 04:45 PM
Distance/Time
Traveled:
102nm/0:49
Distance/Time
To Go:
Arrived

Flight Plot

Page will automatically refresh every two minutes.


Map Options




Map Legend


Flown Route
Filed Route
Departure Airport
Arrival Airport
Navaid (VOR, NDB)
Fix

Horizontal Profiles

Position Reports

Time Latitude Longitude Heading Altitude Ground
Speed
25-Apr-18 15:51 33.039913 -116.914515 207 1399ft 0kts
25-Apr-18 15:52 33.039564 -116.915022 188 1399ft 0kts
25-Apr-18 15:53 33.039564 -116.915022 188 1399ft 0kts
25-Apr-18 15:54 33.039564 -116.915022 188 1399ft 0kts
25-Apr-18 15:55 33.039704 -116.918743 281 1399ft 60kts
25-Apr-18 15:56 33.047040 -116.927749 74 2006ft 67kts
25-Apr-18 15:57 33.064820 -116.927089 337 2330ft 90kts
25-Apr-18 15:58 33.086697 -116.939590 328 2940ft 87kts
25-Apr-18 15:59 33.109301 -116.945276 343 3474ft 89kts
25-Apr-18 16:00 33.136079 -116.954066 338 3491ft 107kts
25-Apr-18 16:01 33.164651 -116.965143 337 3490ft 110kts
25-Apr-18 16:02 33.193846 -116.976715 337 3490ft 111kts
25-Apr-18 16:03 33.222692 -116.988174 337 3491ft 113kts
25-Apr-18 16:04 33.251697 -116.999710 337 3490ft 115kts
25-Apr-18 16:05 33.281291 -117.011498 337 3490ft 115kts
25-Apr-18 16:06 33.310575 -117.023174 337 3489ft 116kts
25-Apr-18 16:07 33.340498 -117.035092 337 3488ft 117kts
25-Apr-18 16:08 33.371577 -117.047499 337 3487ft 118kts
25-Apr-18 16:09 33.403067 -117.060090 337 3485ft 119kts
25-Apr-18 16:10 33.434780 -117.072746 337 3483ft 121kts
25-Apr-18 16:11 33.466775 -117.085530 337 3478ft 121kts
25-Apr-18 16:12 33.498708 -117.098319 336 3474ft 121kts
25-Apr-18 16:13 33.530126 -117.110969 335 3473ft 119kts
25-Apr-18 16:14 33.561205 -117.123434 335 3474ft 118kts
25-Apr-18 16:15 33.585171 -117.145596 305 3473ft 109kts
25-Apr-18 16:16 33.604352 -117.172979 305 3471ft 108kts
25-Apr-18 16:17 33.623327 -117.200507 305 3471ft 107kts
25-Apr-18 16:18 33.642208 -117.228025 305 3472ft 110kts
25-Apr-18 16:19 33.661913 -117.256827 305 3471ft 114kts
25-Apr-18 16:20 33.681945 -117.286048 305 3471ft 115kts
25-Apr-18 16:21 33.701717 -117.314966 305 3467ft 115kts
25-Apr-18 16:22 33.720845 -117.342876 305 3458ft 108kts
25-Apr-18 16:23 33.739536 -117.370299 305 3451ft 109kts
25-Apr-18 16:24 33.758370 -117.397911 305 3422ft 110kts
25-Apr-18 16:25 33.777500 -117.425859 305 3324ft 112kts
25-Apr-18 16:26 33.797585 -117.455269 305 3092ft 116kts
25-Apr-18 16:27 33.817210 -117.484027 305 2847ft 105kts
25-Apr-18 16:28 33.834953 -117.510133 305 2465ft 98kts
25-Apr-18 16:29 33.852925 -117.536692 306 2459ft 106kts
25-Apr-18 16:30 33.871607 -117.564228 306 2460ft 107kts
25-Apr-18 16:31 33.889841 -117.591098 306 2457ft 107kts
25-Apr-18 16:32 33.895730 -117.623887 269 2460ft 106kts
25-Apr-18 16:33 33.893819 -117.658059 267 2480ft 107kts
25-Apr-18 16:34 33.891471 -117.693506 268 2494ft 111kts
25-Apr-18 16:35 33.889057 -117.729527 268 2496ft 114kts
25-Apr-18 16:36 33.886556 -117.767426 267 2126ft 117kts
25-Apr-18 16:37 33.884183 -117.802560 267 1633ft 99kts
25-Apr-18 16:38 33.882040 -117.834021 266 1138ft 93kts
25-Apr-18 16:39 33.880097 -117.860943 262 1090ft 90kts
25-Apr-18 16:40 33.878272 -117.889526 261 1077ft 83kts
25-Apr-18 16:41 33.875942 -117.922126 262 886ft 105kts
25-Apr-18 16:42 33.876961 -117.953917 256 671ft 68kts
25-Apr-18 16:43 33.873368 -117.973172 254 162ft 60kts
25-Apr-18 16:44 33.871666 -117.979341 163 100ft 0kts
25-Apr-18 16:45 33.870830 -117.977862 25 100ft 12kts
25-Apr-18 16:46 33.870944 -117.978121 255 100ft 0kts
25-Apr-18 16:47 33.870944 -117.978121 255 100ft 0kts
25-Apr-18 16:48 33.870944 -117.978121 255 100ft 0kts
25-Apr-18 16:49 33.870944 -117.978121 255 100ft 0kts
25-Apr-18 16:50 33.870944 -117.978121 255 100ft 0kts
25-Apr-18 16:51 33.870944 -117.978121 255 100ft 0kts
25-Apr-18 16:52 33.870944 -117.978121 255 100ft 0kts
25-Apr-18 16:53 34.629961 -117.655412 359 2887ft 0kts
25-Apr-18 16:54 34.629961 -117.655412 359 2887ft 0kts

Navigation Log

Ident Type
Flight plan parsing failed, navigation log unavailable